sensor_id;sensor_type;location;lat;lon;timestamp;temperature;humidity
67586;SHT31;55785;47.946;20.540;2023-06-01T00:01:44;13.00;70.71
67586;SHT31;55785;47.946;20.540;2023-06-01T00:04:09;12.91;71.13
67586;SHT31;55785;47.946;20.540;2023-06-01T00:06:35;12.85;71.48
67586;SHT31;55785;47.946;20.540;2023-06-01T00:09:00;12.82;71.68
67586;SHT31;55785;47.946;20.540;2023-06-01T00:11:25;12.73;71.88
67586;SHT31;55785;47.946;20.540;2023-06-01T00:13:51;12.69;72.68
67586;SHT31;55785;47.946;20.540;2023-06-01T00:16:17;12.62;73.28
67586;SHT31;55785;47.946;20.540;2023-06-01T00:18:42;12.59;72.70
67586;SHT31;55785;47.946;20.540;2023-06-01T00:21:08;12.54;72.79
67586;SHT31;55785;47.946;20.540;2023-06-01T00:23:34;12.56;72.60
67586;SHT31;55785;47.946;20.540;2023-06-01T00:25:59;12.56;72.93
67586;SHT31;55785;47.946;20.540;2023-06-01T00:28:25;12.55;72.92
67586;SHT31;55785;47.946;20.540;2023-06-01T00:30:50;12.56;72.32
67586;SHT31;55785;47.946;20.540;2023-06-01T00:33:15;12.56;72.08
67586;SHT31;55785;47.946;20.540;2023-06-01T00:35:41;12.62;72.00
67586;SHT31;55785;47.946;20.540;2023-06-01T00:38:06;12.62;71.55
67586;SHT31;55785;47.946;20.540;2023-06-01T00:40:33;12.64;71.75
67586;SHT31;55785;47.946;20.540;2023-06-01T00:42:58;12.65;71.66
67586;SHT31;55785;47.946;20.540;2023-06-01T00:45:23;12.65;72.08
67586;SHT31;55785;47.946;20.540;2023-06-01T00:47:49;12.58;71.89
67586;SHT31;55785;47.946;20.540;2023-06-01T00:50:14;12.55;71.64
67586;SHT31;55785;47.946;20.540;2023-06-01T00:52:40;12.56;72.61
67586;SHT31;55785;47.946;20.540;2023-06-01T00:55:06;12.58;72.10
67586;SHT31;55785;47.946;20.540;2023-06-01T00:57:32;12.62;71.49
67586;SHT31;55785;47.946;20.540;2023-06-01T00:59:57;12.62;72.30
67586;SHT31;55785;47.946;20.540;2023-06-01T01:02:23;12.58;71.85
67586;SHT31;55785;47.946;20.540;2023-06-01T01:04:48;12.69;71.54
67586;SHT31;55785;47.946;20.540;2023-06-01T01:07:21;12.72;71.20
67586;SHT31;55785;47.946;20.540;2023-06-01T01:15:12;12.82;70.36
67586;SHT31;55785;47.946;20.540;2023-06-01T01:17:42;12.82;70.41
67586;SHT31;55785;47.946;20.540;2023-06-01T01:20:13;12.78;70.59
67586;SHT31;55785;47.946;20.540;2023-06-01T01:28:41;12.73;70.66
67586;SHT31;55785;47.946;20.540;2023-06-01T01:31:12;12.73;70.62
67586;SHT31;55785;47.946;20.540;2023-06-01T01:33:39;12.72;70.83
67586;SHT31;55785;47.946;20.540;2023-06-01T01:36:06;12.75;71.40
67586;SHT31;55785;47.946;20.540;2023-06-01T01:38:36;12.78;70.78
67586;SHT31;55785;47.946;20.540;2023-06-01T01:41:02;12.79;70.71
67586;SHT31;55785;47.946;20.540;2023-06-01T01:43:28;12.76;71.12
67586;SHT31;55785;47.946;20.540;2023-06-01T01:46:03;12.75;70.97
67586;SHT31;55785;47.946;20.540;2023-06-01T01:49:33;12.69;71.14
67586;SHT31;55785;47.946;20.540;2023-06-01T01:51:33;12.64;71.33
67586;SHT31;55785;47.946;20.540;2023-06-01T01:54:00;12.55;71.56
67586;SHT31;55785;47.946;20.540;2023-06-01T01:56:28;12.52;71.49
67586;SHT31;55785;47.946;20.540;2023-06-01T01:58:53;12.51;71.69
67586;SHT31;55785;47.946;20.540;2023-06-01T02:01:20;12.52;72.30
67586;SHT31;55785;47.946;20.540;2023-06-01T02:03:45;12.51;72.43
67586;SHT31;55785;47.946;20.540;2023-06-01T02:06:10;12.54;72.43
67586;SHT31;55785;47.946;20.540;2023-06-01T02:08:36;12.52;71.68
67586;SHT31;55785;47.946;20.540;2023-06-01T02:11:01;12.54;71.71
67586;SHT31;55785;47.946;20.540;2023-06-01T02:13:26;12.58;72.00
67586;SHT31;55785;47.946;20.540;2023-06-01T02:15:52;12.58;71.52
67586;SHT31;55785;47.946;20.540;2023-06-01T02:18:17;12.55;71.81
67586;SHT31;55785;47.946;20.540;2023-06-01T02:20:43;12.56;71.76
67586;SHT31;55785;47.946;20.540;2023-06-01T02:23:08;12.45;72.26
67586;SHT31;55785;47.946;20.540;2023-06-01T02:25:34;12.38;72.42
67586;SHT31;55785;47.946;20.540;2023-06-01T02:27:59;12.33;72.73
67586;SHT31;55785;47.946;20.540;2023-06-01T02:30:24;12.33;72.81
67586;SHT31;55785;47.946;20.540;2023-06-01T02:32:50;12.34;72.55
67586;SHT31;55785;47.946;20.540;2023-06-01T02:35:15;12.31;72.74
67586;SHT31;55785;47.946;20.540;2023-06-01T02:37:40;12.30;72.00
67586;SHT31;55785;47.946;20.540;2023-06-01T02:40:07;12.31;72.09
67586;SHT31;55785;47.946;20.540;2023-06-01T02:42:32;12.30;72.34
67586;SHT31;55785;47.946;20.540;2023-06-01T02:44:58;12.25;72.66
67586;SHT31;55785;47.946;20.540;2023-06-01T02:47:23;12.23;73.01
67586;SHT31;55785;47.946;20.540;2023-06-01T02:49:48;12.16;73.41
67586;SHT31;55785;47.946;20.540;2023-06-01T02:52:13;12.13;73.65
67586;SHT31;55785;47.946;20.540;2023-06-01T02:54:39;12.04;73.79
67586;SHT31;55785;47.946;20.540;2023-06-01T02:57:04;12.03;73.78
67586;SHT31;55785;47.946;20.540;2023-06-01T02:59:30;12.00;73.84
67586;SHT31;55785;47.946;20.540;2023-06-01T03:01:55;12.03;73.87
67586;SHT31;55785;47.946;20.540;2023-06-01T03:04:20;12.06;73.76
67586;SHT31;55785;47.946;20.540;2023-06-01T03:06:46;12.06;73.95
67586;SHT31;55785;47.946;20.540;2023-06-01T03:09:11;12.06;73.85
67586;SHT31;55785;47.946;20.540;2023-06-01T03:11:36;12.07;74.09
67586;SHT31;55785;47.946;20.540;2023-06-01T03:14:02;12.03;74.43
67586;SHT31;55785;47.946;20.540;2023-06-01T03:16:27;12.03;74.86
67586;SHT31;55785;47.946;20.540;2023-06-01T03:18:52;11.96;74.57
67586;SHT31;55785;47.946;20.540;2023-06-01T03:21:18;11.98;74.29
67586;SHT31;55785;47.946;20.540;2023-06-01T03:23:43;11.98;74.78
67586;SHT31;55785;47.946;20.540;2023-06-01T03:26:11;12.01;74.92
67586;SHT31;55785;47.946;20.540;2023-06-01T03:28:36;12.04;75.08
67586;SHT31;55785;47.946;20.540;2023-06-01T03:31:02;12.07;75.11
67586;SHT31;55785;47.946;20.540;2023-06-01T03:33:27;12.10;75.68
67586;SHT31;55785;47.946;20.540;2023-06-01T03:35:52;12.14;75.73
67586;SHT31;55785;47.946;20.540;2023-06-01T03:38:18;12.18;76.25
67586;SHT31;55785;47.946;20.540;2023-06-01T03:40:43;12.20;75.48
67586;SHT31;55785;47.946;20.540;2023-06-01T03:43:08;12.31;75.13
67586;SHT31;55785;47.946;20.540;2023-06-01T03:45:34;12.41;74.16
67586;SHT31;55785;47.946;20.540;2023-06-01T03:47:59;12.55;74.43
67586;SHT31;55785;47.946;20.540;2023-06-01T03:50:25;12.73;73.94
67586;SHT31;55785;47.946;20.540;2023-06-01T03:52:50;12.83;73.28
67586;SHT31;55785;47.946;20.540;2023-06-01T03:55:15;12.97;72.78
67586;SHT31;55785;47.946;20.540;2023-06-01T03:57:41;13.10;72.54
67586;SHT31;55785;47.946;20.540;2023-06-01T04:00:07;13.23;72.45
67586;SHT31;55785;47.946;20.540;2023-06-01T04:02:33;13.33;72.05
67586;SHT31;55785;47.946;20.540;2023-06-01T04:04:58;13.48;72.16
67586;SHT31;55785;47.946;20.540;2023-06-01T04:07:23;13.58;71.66
67586;SHT31;55785;47.946;20.540;2023-06-01T04:09:49;13.70;71.52
67586;SHT31;55785;47.946;20.540;2023-06-01T04:12:14;13.81;71.55
67586;SHT31;55785;47.946;20.540;2023-06-01T04:14:40;13.91;71.35
67586;SHT31;55785;47.946;20.540;2023-06-01T04:17:05;14.02;73.01
67586;SHT31;55785;47.946;20.540;2023-06-01T04:19:34;14.13;74.31
67586;SHT31;55785;47.946;20.540;2023-06-01T04:22:00;14.19;73.48
67586;SHT31;55785;47.946;20.540;2023-06-01T04:24:25;14.28;73.83
67586;SHT31;55785;47.946;20.540;2023-06-01T04:26:50;14.37;72.44
67586;SHT31;55785;47.946;20.540;2023-06-01T04:29:16;14.51;72.15
67586;SHT31;55785;47.946;20.540;2023-06-01T04:31:41;14.61;71.72
67586;SHT31;55785;47.946;20.540;2023-06-01T04:34:07;14.73;71.28
67586;SHT31;55785;47.946;20.540;2023-06-01T04:36:33;14.88;70.17
67586;SHT31;55785;47.946;20.540;2023-06-01T04:38:58;15.08;70.55
67586;SHT31;55785;47.946;20.540;2023-06-01T04:41:24;15.16;67.99
67586;SHT31;55785;47.946;20.540;2023-06-01T04:43:53;15.29;68.74
67586;SHT31;55785;47.946;20.540;2023-06-01T04:46:22;15.40;68.90
67586;SHT31;55785;47.946;20.540;2023-06-01T04:48:47;15.57;70.72
67586;SHT31;55785;47.946;20.540;2023-06-01T04:51:14;15.69;70.44
67586;SHT31;55785;47.946;20.540;2023-06-01T04:53:39;15.89;70.47
67586;SHT31;55785;47.946;20.540;2023-06-01T04:56:05;16.11;69.59
67586;SHT31;55785;47.946;20.540;2023-06-01T04:58:30;16.32;69.47
67586;SHT31;55785;47.946;20.540;2023-06-01T05:00:55;16.45;68.14
67586;SHT31;55785;47.946;20.540;2023-06-01T05:03:21;16.63;70.19
67586;SHT31;55785;47.946;20.540;2023-06-01T05:05:46;16.77;68.46
67586;SHT31;55785;47.946;20.540;2023-06-01T05:08:11;16.86;69.61
67586;SHT31;55785;47.946;20.540;2023-06-01T05:10:37;16.97;68.80
67586;SHT31;55785;47.946;20.540;2023-06-01T05:13:03;17.14;68.35
67586;SHT31;55785;47.946;20.540;2023-06-01T05:15:28;17.30;68.73
67586;SHT31;55785;47.946;20.540;2023-06-01T05:17:53;17.42;67.93
67586;SHT31;55785;47.946;20.540;2023-06-01T05:20:19;17.58;68.26
67586;SHT31;55785;47.946;20.540;2023-06-01T05:22:44;17.71;65.42
67586;SHT31;55785;47.946;20.540;2023-06-01T05:25:09;17.82;68.93
67586;SHT31;55785;47.946;20.540;2023-06-01T05:27:35;17.95;66.56
67586;SHT31;55785;47.946;20.540;2023-06-01T05:30:00;18.06;64.36
67586;SHT31;55785;47.946;20.540;2023-06-01T05:32:26;18.20;65.13
67586;SHT31;55785;47.946;20.540;2023-06-01T05:34:51;18.24;64.95
67586;SHT31;55785;47.946;20.540;2023-06-01T05:37:16;18.32;64.31
67586;SHT31;55785;47.946;20.540;2023-06-01T05:39:42;18.43;64.19
67586;SHT31;55785;47.946;20.540;2023-06-01T05:42:07;18.61;66.15
67586;SHT31;55785;47.946;20.540;2023-06-01T05:44:33;18.72;65.62
67586;SHT31;55785;47.946;20.540;2023-06-01T05:46:58;18.82;65.48
67586;SHT31;55785;47.946;20.540;2023-06-01T05:49:23;18.92;66.96
67586;SHT31;55785;47.946;20.540;2023-06-01T05:51:49;18.87;60.87
67586;SHT31;55785;47.946;20.540;2023-06-01T05:54:14;18.96;66.47
67586;SHT31;55785;47.946;20.540;2023-06-01T05:56:39;18.94;59.08
67586;SHT31;55785;47.946;20.540;2023-06-01T05:59:05;19.11;59.22
67586;SHT31;55785;47.946;20.540;2023-06-01T06:01:30;19.15;58.18
67586;SHT31;55785;47.946;20.540;2023-06-01T06:03:55;19.24;59.83
67586;SHT31;55785;47.946;20.540;2023-06-01T06:06:21;19.49;60.38
67586;SHT31;55785;47.946;20.540;2023-06-01T06:08:46;19.61;57.25
67586;SHT31;55785;47.946;20.540;2023-06-01T06:11:12;19.78;57.04
67586;SHT31;55785;47.946;20.540;2023-06-01T06:13:37;20.01;56.92
67586;SHT31;55785;47.946;20.540;2023-06-01T06:16:03;20.25;59.95
67586;SHT31;55785;47.946;20.540;2023-06-01T06:18:28;20.70;59.36
67586;SHT31;55785;47.946;20.540;2023-06-01T06:20:53;20.80;55.41
67586;SHT31;55785;47.946;20.540;2023-06-01T06:23:19;20.76;54.87
67586;SHT31;55785;47.946;20.540;2023-06-01T06:25:45;20.77;56.25
67586;SHT31;55785;47.946;20.540;2023-06-01T06:28:10;20.80;56.07
67586;SHT31;55785;47.946;20.540;2023-06-01T06:30:36;20.76;54.44
67586;SHT31;55785;47.946;20.540;2023-06-01T06:33:01;20.84;54.50
67586;SHT31;55785;47.946;20.540;2023-06-01T06:35:26;20.90;54.36
67586;SHT31;55785;47.946;20.540;2023-06-01T06:37:52;20.93;57.20
67586;SHT31;55785;47.946;20.540;2023-06-01T06:40:17;20.96;54.30
67586;SHT31;55785;47.946;20.540;2023-06-01T06:42:42;21.06;50.60
67586;SHT31;55785;47.946;20.540;2023-06-01T06:45:08;21.21;51.51
67586;SHT31;55785;47.946;20.540;2023-06-01T06:47:33;21.35;58.89
67586;SHT31;55785;47.946;20.540;2023-06-01T06:49:59;21.37;59.11
67586;SHT31;55785;47.946;20.540;2023-06-01T06:52:24;21.28;59.82
67586;SHT31;55785;47.946;20.540;2023-06-01T06:54:49;21.28;60.50
67586;SHT31;55785;47.946;20.540;2023-06-01T06:57:15;21.35;55.90
67586;SHT31;55785;47.946;20.540;2023-06-01T06:59:40;21.41;57.56
67586;SHT31;55785;47.946;20.540;2023-06-01T07:02:05;21.41;56.34
67586;SHT31;55785;47.946;20.540;2023-06-01T07:04:31;21.48;56.49
67586;SHT31;55785;47.946;20.540;2023-06-01T07:06:56;21.52;59.10
67586;SHT31;55785;47.946;20.540;2023-06-01T07:09:22;21.56;56.47
67586;SHT31;55785;47.946;20.540;2023-06-01T07:11:47;21.59;55.10
67586;SHT31;55785;47.946;20.540;2023-06-01T07:14:12;21.71;54.13
67586;SHT31;55785;47.946;20.540;2023-06-01T07:16:38;21.65;54.28
67586;SHT31;55785;47.946;20.540;2023-06-01T07:19:03;21.71;54.33
67586;SHT31;55785;47.946;20.540;2023-06-01T07:21:28;21.90;54.17
67586;SHT31;55785;47.946;20.540;2023-06-01T07:23:54;22.07;51.56
67586;SHT31;55785;47.946;20.540;2023-06-01T07:26:19;22.23;48.02
67586;SHT31;55785;47.946;20.540;2023-06-01T07:28:44;22.21;47.01
67586;SHT31;55785;47.946;20.540;2023-06-01T07:31:10;22.23;48.57
67586;SHT31;55785;47.946;20.540;2023-06-01T07:33:36;22.25;50.97
67586;SHT31;55785;47.946;20.540;2023-06-01T07:36:02;22.44;48.73
67586;SHT31;55785;47.946;20.540;2023-06-01T07:38:27;22.48;46.63
67586;SHT31;55785;47.946;20.540;2023-06-01T07:40:52;22.54;43.95
67586;SHT31;55785;47.946;20.540;2023-06-01T07:43:18;22.54;49.56
67586;SHT31;55785;47.946;20.540;2023-06-01T07:45:43;22.60;47.55
67586;SHT31;55785;47.946;20.540;2023-06-01T07:48:08;22.60;49.56
67586;SHT31;55785;47.946;20.540;2023-06-01T07:50:34;22.58;45.83
67586;SHT31;55785;47.946;20.540;2023-06-01T07:52:59;22.61;48.28
67586;SHT31;55785;47.946;20.540;2023-06-01T07:55:24;22.68;47.84
67586;SHT31;55785;47.946;20.540;2023-06-01T07:57:52;22.81;44.09
67586;SHT31;55785;47.946;20.540;2023-06-01T08:00:18;22.98;51.27
67586;SHT31;55785;47.946;20.540;2023-06-01T08:02:43;23.03;48.93
67586;SHT31;55785;47.946;20.540;2023-06-01T08:05:10;23.39;52.06
67586;SHT31;55785;47.946;20.540;2023-06-01T08:07:36;23.61;49.20
67586;SHT31;55785;47.946;20.540;2023-06-01T08:10:01;23.77;46.01
67586;SHT31;55785;47.946;20.540;2023-06-01T08:12:26;23.63;48.61
67586;SHT31;55785;47.946;20.540;2023-06-01T08:14:52;23.43;46.28
67586;SHT31;55785;47.946;20.540;2023-06-01T08:17:17;23.30;54.60
67586;SHT31;55785;47.946;20.540;2023-06-01T08:19:43;23.24;50.88
67586;SHT31;55785;47.946;20.540;2023-06-01T08:22:08;23.22;45.73
67586;SHT31;55785;47.946;20.540;2023-06-01T08:24:33;23.12;43.30
67586;SHT31;55785;47.946;20.540;2023-06-01T08:26:59;23.18;45.36
67586;SHT31;55785;47.946;20.540;2023-06-01T08:29:24;23.37;45.34
67586;SHT31;55785;47.946;20.540;2023-06-01T08:31:50;23.45;46.33
67586;SHT31;55785;47.946;20.540;2023-06-01T08:34:15;23.40;47.25
67586;SHT31;55785;47.946;20.540;2023-06-01T08:36:40;23.37;47.85
67586;SHT31;55785;47.946;20.540;2023-06-01T08:39:22;23.45;44.66
67586;SHT31;55785;47.946;20.540;2023-06-01T08:44:27;23.53;49.31
67586;SHT31;55785;47.946;20.540;2023-06-01T08:46:54;23.61;50.00
67586;SHT31;55785;47.946;20.540;2023-06-01T08:49:19;23.77;45.87
67586;SHT31;55785;47.946;20.540;2023-06-01T08:51:48;23.70;45.22
67586;SHT31;55785;47.946;20.540;2023-06-01T08:54:15;23.60;45.48
67586;SHT31;55785;47.946;20.540;2023-06-01T08:56:40;23.68;44.40
67586;SHT31;55785;47.946;20.540;2023-06-01T08:59:06;23.91;47.61
67586;SHT31;55785;47.946;20.540;2023-06-01T09:01:31;23.88;46.66
67586;SHT31;55785;47.946;20.540;2023-06-01T09:03:57;23.94;48.09
67586;SHT31;55785;47.946;20.540;2023-06-01T09:06:22;24.01;46.83
67586;SHT31;55785;47.946;20.540;2023-06-01T09:08:47;24.28;46.31
67586;SHT31;55785;47.946;20.540;2023-06-01T09:11:13;24.25;43.82
67586;SHT31;55785;47.946;20.540;2023-06-01T09:13:40;24.39;48.59
67586;SHT31;55785;47.946;20.540;2023-06-01T09:16:06;24.33;43.51
67586;SHT31;55785;47.946;20.540;2023-06-01T09:18:31;24.51;51.34
67586;SHT31;55785;47.946;20.540;2023-06-01T09:21:13;24.30;45.49
67586;SHT31;55785;47.946;20.540;2023-06-01T09:23:39;24.48;51.26
67586;SHT31;55785;47.946;20.540;2023-06-01T09:26:09;24.52;47.73
67586;SHT31;55785;47.946;20.540;2023-06-01T09:29:04;24.40;43.75
67586;SHT31;55785;47.946;20.540;2023-06-01T09:31:43;24.36;48.68
67586;SHT31;55785;47.946;20.540;2023-06-01T09:34:10;24.42;48.35
67586;SHT31;55785;47.946;20.540;2023-06-01T09:36:36;24.52;47.70
67586;SHT31;55785;47.946;20.540;2023-06-01T09:39:05;24.56;51.26
67586;SHT31;55785;47.946;20.540;2023-06-01T09:41:53;24.84;50.72
67586;SHT31;55785;47.946;20.540;2023-06-01T09:44:30;24.87;50.44
67586;SHT31;55785;47.946;20.540;2023-06-01T09:46:57;24.80;42.66
67586;SHT31;55785;47.946;20.540;2023-06-01T09:49:36;24.95;43.62
67586;SHT31;55785;47.946;20.540;2023-06-01T09:54:35;24.91;46.63
67586;SHT31;55785;47.946;20.540;2023-06-01T09:57:02;24.79;43.91
67586;SHT31;55785;47.946;20.540;2023-06-01T09:59:28;24.72;43.90
67586;SHT31;55785;47.946;20.540;2023-06-01T10:01:58;24.79;48.30
67586;SHT31;55785;47.946;20.540;2023-06-01T10:04:27;24.86;47.43
67586;SHT31;55785;47.946;20.540;2023-06-01T10:06:55;25.03;46.94
67586;SHT31;55785;47.946;20.540;2023-06-01T10:09:25;25.18;50.12
67586;SHT31;55785;47.946;20.540;2023-06-01T10:11:53;25.11;45.35
67586;SHT31;55785;47.946;20.540;2023-06-01T10:14:20;25.25;50.02
67586;SHT31;55785;47.946;20.540;2023-06-01T10:16:47;25.45;51.65
67586;SHT31;55785;47.946;20.540;2023-06-01T10:19:13;25.48;47.98
67586;SHT31;55785;47.946;20.540;2023-06-01T10:21:38;25.51;47.46
67586;SHT31;55785;47.946;20.540;2023-06-01T10:24:05;25.30;46.27
67586;SHT31;55785;47.946;20.540;2023-06-01T10:26:38;25.31;42.75
67586;SHT31;55785;47.946;20.540;2023-06-01T10:29:04;25.51;43.37
67586;SHT31;55785;47.946;20.540;2023-06-01T10:31:38;25.55;45.39
67586;SHT31;55785;47.946;20.540;2023-06-01T10:34:04;25.62;46.78
67586;SHT31;55785;47.946;20.540;2023-06-01T10:39:24;25.75;41.85
67586;SHT31;55785;47.946;20.540;2023-06-01T10:41:50;25.89;40.75
67586;SHT31;55785;47.946;20.540;2023-06-01T10:47:03;25.88;45.35
67586;SHT31;55785;47.946;20.540;2023-06-01T10:52:35;26.06;44.01
67586;SHT31;55785;47.946;20.540;2023-06-01T10:57:38;26.26;40.29
67586;SHT31;55785;47.946;20.540;2023-06-01T11:00:23;26.37;41.76
67586;SHT31;55785;47.946;20.540;2023-06-01T11:08:01;26.58;44.88
67586;SHT31;55785;47.946;20.540;2023-06-01T11:13:17;26.37;40.12
67586;SHT31;55785;47.946;20.540;2023-06-01T11:18:52;26.43;42.80
67586;SHT31;55785;47.946;20.540;2023-06-01T11:21:20;26.43;39.49
67586;SHT31;55785;47.946;20.540;2023-06-01T11:23:45;26.54;39.79
67586;SHT31;55785;47.946;20.540;2023-06-01T11:26:14;26.54;39.95
67586;SHT31;55785;47.946;20.540;2023-06-01T11:28:40;26.58;41.11
67586;SHT31;55785;47.946;20.540;2023-06-01T11:31:09;26.38;40.56
67586;SHT31;55785;47.946;20.540;2023-06-01T11:33:38;26.52;43.47
67586;SHT31;55785;47.946;20.540;2023-06-01T11:36:04;26.65;41.76
67586;SHT31;55785;47.946;20.540;2023-06-01T11:38:40;26.81;39.70
67586;SHT31;55785;47.946;20.540;2023-06-01T11:41:06;26.92;38.91
67586;SHT31;55785;47.946;20.540;2023-06-01T11:43:32;27.16;40.96
67586;SHT31;55785;47.946;20.540;2023-06-01T11:46:06;27.24;39.18
67586;SHT31;55785;47.946;20.540;2023-06-01T11:48:31;27.13;39.15
67586;SHT31;55785;47.946;20.540;2023-06-01T11:50:57;27.32;37.75
67586;SHT31;55785;47.946;20.540;2023-06-01T11:53:23;27.44;39.86
67586;SHT31;55785;47.946;20.540;2023-06-01T11:55:56;27.43;37.46
67586;SHT31;55785;47.946;20.540;2023-06-01T12:00:46;27.61;38.34
67586;SHT31;55785;47.946;20.540;2023-06-01T12:03:12;27.42;40.54
67586;SHT31;55785;47.946;20.540;2023-06-01T12:05:38;27.57;38.02
67586;SHT31;55785;47.946;20.540;2023-06-01T12:08:04;27.61;43.91
67586;SHT31;55785;47.946;20.540;2023-06-01T12:10:29;27.43;40.04
67586;SHT31;55785;47.946;20.540;2023-06-01T12:12:55;27.47;38.53
67586;SHT31;55785;47.946;20.540;2023-06-01T12:15:21;27.22;40.00
67586;SHT31;55785;47.946;20.540;2023-06-01T12:17:51;27.24;38.34
67586;SHT31;55785;47.946;20.540;2023-06-01T12:20:27;27.47;41.47
67586;SHT31;55785;47.946;20.540;2023-06-01T12:22:52;27.49;39.66
67586;SHT31;55785;47.946;20.540;2023-06-01T12:25:18;27.09;39.13
67586;SHT31;55785;47.946;20.540;2023-06-01T12:27:43;27.02;39.86
67586;SHT31;55785;47.946;20.540;2023-06-01T12:30:23;26.82;39.54
67586;SHT31;55785;47.946;20.540;2023-06-01T12:32:49;26.88;40.00
67586;SHT31;55785;47.946;20.540;2023-06-01T12:35:14;26.91;39.83
67586;SHT31;55785;47.946;20.540;2023-06-01T12:37:39;26.54;41.60
67586;SHT31;55785;47.946;20.540;2023-06-01T12:40:05;26.93;45.23
67586;SHT31;55785;47.946;20.540;2023-06-01T12:42:38;27.24;37.02
67586;SHT31;55785;47.946;20.540;2023-06-01T12:45:04;27.54;37.77
67586;SHT31;55785;47.946;20.540;2023-06-01T12:47:40;27.81;36.06
67586;SHT31;55785;47.946;20.540;2023-06-01T12:50:06;27.76;36.16
67586;SHT31;55785;47.946;20.540;2023-06-01T12:52:32;27.88;37.43
67586;SHT31;55785;47.946;20.540;2023-06-01T12:54:57;28.06;36.97
67586;SHT31;55785;47.946;20.540;2023-06-01T12:57:23;27.84;38.05
67586;SHT31;55785;47.946;20.540;2023-06-01T12:59:48;27.71;38.07
67586;SHT31;55785;47.946;20.540;2023-06-01T13:02:13;27.74;38.68
67586;SHT31;55785;47.946;20.540;2023-06-01T13:04:39;27.77;39.38
67586;SHT31;55785;47.946;20.540;2023-06-01T13:07:04;27.78;39.86
67586;SHT31;55785;47.946;20.540;2023-06-01T13:09:30;27.34;40.72
67586;SHT31;55785;47.946;20.540;2023-06-01T13:11:55;27.46;40.72
67586;SHT31;55785;47.946;20.540;2023-06-01T13:14:20;27.65;40.53
67586;SHT31;55785;47.946;20.540;2023-06-01T13:16:46;27.95;40.07
67586;SHT31;55785;47.946;20.540;2023-06-01T13:19:11;28.02;40.90
67586;SHT31;55785;47.946;20.540;2023-06-01T13:21:36;27.77;40.60
67586;SHT31;55785;47.946;20.540;2023-06-01T13:24:02;27.43;38.88
67586;SHT31;55785;47.946;20.540;2023-06-01T13:26:27;27.36;41.23
67586;SHT31;55785;47.946;20.540;2023-06-01T13:28:53;27.51;40.68
67586;SHT31;55785;47.946;20.540;2023-06-01T13:31:18;27.47;40.73
67586;SHT31;55785;47.946;20.540;2023-06-01T13:33:43;26.98;39.82
67586;SHT31;55785;47.946;20.540;2023-06-01T13:36:09;26.88;42.26
67586;SHT31;55785;47.946;20.540;2023-06-01T13:38:34;27.20;40.93
67586;SHT31;55785;47.946;20.540;2023-06-01T13:40:59;27.51;41.89
67586;SHT31;55785;47.946;20.540;2023-06-01T13:43:25;27.94;41.05
67586;SHT31;55785;47.946;20.540;2023-06-01T13:45:50;27.98;40.35
67586;SHT31;55785;47.946;20.540;2023-06-01T13:48:15;28.09;38.01
67586;SHT31;55785;47.946;20.540;2023-06-01T13:50:41;27.95;37.73
67586;SHT31;55785;47.946;20.540;2023-06-01T13:53:06;27.92;38.84
67586;SHT31;55785;47.946;20.540;2023-06-01T13:55:31;28.04;38.90
67586;SHT31;55785;47.946;20.540;2023-06-01T13:57:56;28.22;39.50
67586;SHT31;55785;47.946;20.540;2023-06-01T14:00:22;28.26;40.39
67586;SHT31;55785;47.946;20.540;2023-06-01T14:02:47;28.25;39.61
67586;SHT31;55785;47.946;20.540;2023-06-01T14:05:12;28.38;42.12
67586;SHT31;55785;47.946;20.540;2023-06-01T14:07:38;28.29;38.75
67586;SHT31;55785;47.946;20.540;2023-06-01T14:10:03;28.11;37.91
67586;SHT31;55785;47.946;20.540;2023-06-01T14:12:29;28.32;39.96
67586;SHT31;55785;47.946;20.540;2023-06-01T14:14:54;27.87;38.07
67586;SHT31;55785;47.946;20.540;2023-06-01T14:17:19;27.63;38.90
67586;SHT31;55785;47.946;20.540;2023-06-01T14:19:45;27.55;39.88
67586;SHT31;55785;47.946;20.540;2023-06-01T14:22:10;27.67;39.78
67586;SHT31;55785;47.946;20.540;2023-06-01T14:24:36;27.84;39.97
67586;SHT31;55785;47.946;20.540;2023-06-01T14:27:01;27.95;37.39
67586;SHT31;55785;47.946;20.540;2023-06-01T14:29:26;27.97;37.57
67586;SHT31;55785;47.946;20.540;2023-06-01T14:31:51;27.53;39.27
67586;SHT31;55785;47.946;20.540;2023-06-01T14:34:17;27.57;38.05
67586;SHT31;55785;47.946;20.540;2023-06-01T14:36:42;27.82;38.16
67586;SHT31;55785;47.946;20.540;2023-06-01T14:39:07;27.90;37.81
67586;SHT31;55785;47.946;20.540;2023-06-01T14:41:33;27.88;37.37
67586;SHT31;55785;47.946;20.540;2023-06-01T14:43:58;27.91;37.06
67586;SHT31;55785;47.946;20.540;2023-06-01T14:46:23;28.06;38.69
67586;SHT31;55785;47.946;20.540;2023-06-01T14:48:49;27.76;37.13
67586;SHT31;55785;47.946;20.540;2023-06-01T14:51:14;27.82;39.81
67586;SHT31;55785;47.946;20.540;2023-06-01T14:53:40;27.84;37.06
67586;SHT31;55785;47.946;20.540;2023-06-01T14:56:05;27.97;37.52
67586;SHT31;55785;47.946;20.540;2023-06-01T14:58:31;28.05;37.63
67586;SHT31;55785;47.946;20.540;2023-06-01T15:00:56;27.95;36.66
67586;SHT31;55785;47.946;20.540;2023-06-01T15:03:22;27.84;37.81
67586;SHT31;55785;47.946;20.540;2023-06-01T15:05:47;28.02;36.61
67586;SHT31;55785;47.946;20.540;2023-06-01T15:08:12;28.11;38.30
67586;SHT31;55785;47.946;20.540;2023-06-01T15:10:38;27.87;36.23
67586;SHT31;55785;47.946;20.540;2023-06-01T15:13:03;27.65;35.41
67586;SHT31;55785;47.946;20.540;2023-06-01T15:15:28;27.74;35.12
67586;SHT31;55785;47.946;20.540;2023-06-01T15:17:54;27.87;35.83
67586;SHT31;55785;47.946;20.540;2023-06-01T15:20:19;27.72;34.98
67586;SHT31;55785;47.946;20.540;2023-06-01T15:22:44;27.88;35.86
67586;SHT31;55785;47.946;20.540;2023-06-01T15:25:10;27.92;36.12
67586;SHT31;55785;47.946;20.540;2023-06-01T15:27:35;27.90;35.58
67586;SHT31;55785;47.946;20.540;2023-06-01T15:30:00;27.82;35.71
67586;SHT31;55785;47.946;20.540;2023-06-01T15:32:26;27.88;36.13
67586;SHT31;55785;47.946;20.540;2023-06-01T15:34:51;27.55;34.91
67586;SHT31;55785;47.946;20.540;2023-06-01T15:37:16;27.60;35.70
67586;SHT31;55785;47.946;20.540;2023-06-01T15:39:42;27.61;37.43
67586;SHT31;55785;47.946;20.540;2023-06-01T15:42:08;27.58;35.65
67586;SHT31;55785;47.946;20.540;2023-06-01T15:44:41;27.27;36.36
67586;SHT31;55785;47.946;20.540;2023-06-01T15:47:08;27.26;37.75
67586;SHT31;55785;47.946;20.540;2023-06-01T15:49:34;27.30;35.98
67586;SHT31;55785;47.946;20.540;2023-06-01T15:51:59;27.23;36.08